Time;durP1;ratioP1;P1;durP2;ratioP2;P2;SDS_P1;SDS_P2;PMS_P1;PMS_P2;Temp;Humidity;BMP_temperature;BMP_pressure;BME280_temperature;BME280_humidity;BME280_pressure;Samples;Min_cycle;Max_cycle;Signal;HPM_P1;HPM_P2
2021/04/12 00:00:42;;;;;;;6.38;5.47;;;24.30;48.10;;;;;;5075129;28;20035;-50
2021/04/12 00:03:11;;;;;;;5.57;4.88;;;24.20;48.10;;;;;;5075193;28;20044;-50
2021/04/12 00:05:56;;;;;;;8.63;6.80;;;24.30;48.20;;;;;;5094815;28;20081;-49
2021/04/12 00:08:55;;;;;;;7.03;4.60;;;24.30;48.30;;;;;;5094339;28;20038;-50
2021/04/12 00:11:44;;;;;;;4.35;3.00;;;24.20;48.20;;;;;;5094986;28;20036;-50
2021/04/12 00:14:12;;;;;;;4.90;2.58;;;24.20;48.00;;;;;;5094283;28;20078;-50
2021/04/12 00:16:47;;;;;;;4.70;2.45;;;24.20;47.70;;;;;;5094327;28;20032;-50
2021/04/12 00:19:31;;;;;;;2.13;1.50;;;24.20;47.60;;;;;;5093446;28;20111;-51
2021/04/12 00:22:10;;;;;;;4.43;1.92;;;24.20;47.60;;;;;;5092555;28;20442;-51
2021/04/12 00:24:48;;;;;;;2.00;1.37;;;24.20;47.70;;;;;;5073263;28;20036;-50
2021/04/12 00:27:26;;;;;;;2.40;1.80;;;24.20;47.70;;;;;;5074835;28;20044;-50
2021/04/12 00:30:17;;;;;;;2.45;1.58;;;24.10;47.60;;;;;;5074054;28;20072;-49
2021/04/12 00:32:48;;;;;;;2.75;1.73;;;24.20;47.70;;;;;;5077809;28;20034;-50
2021/04/12 00:35:24;;;;;;;3.72;1.40;;;24.10;47.70;;;;;;5094031;28;20504;-50
2021/04/12 00:38:02;;;;;;;4.15;1.83;;;24.10;47.70;;;;;;5093630;28;20028;-51
2021/04/12 00:41:00;;;;;;;2.05;1.63;;;24.10;47.70;;;;;;5094275;28;20028;-51
2021/04/12 00:43:32;;;;;;;1.58;1.25;;;24.10;47.80;;;;;;5093605;28;20040;-50
2021/04/12 00:46:24;;;;;;;2.78;1.35;;;24.10;47.60;;;;;;5094016;28;20028;-50
2021/04/12 00:48:56;;;;;;;3.58;1.40;;;24.10;47.70;;;;;;5093507;28;20036;-51
2021/04/12 00:51:32;;;;;;;2.35;1.17;;;24.10;47.70;;;;;;5093924;28;20449;-50
2021/04/12 00:54:49;;;;;;;5.50;1.48;;;24.10;47.80;;;;;;5075492;28;20106;-51
2021/04/12 00:57:33;;;;;;;3.75;1.48;;;24.00;47.70;;;;;;5093976;28;20024;-51
2021/04/12 01:00:14;;;;;;;3.88;1.58;;;24.10;47.70;;;;;;5075187;28;20028;-51
2021/04/12 01:03:14;;;;;;;3.45;1.40;;;24.00;47.50;;;;;;5093088;28;20082;-51
2021/04/12 01:06:11;;;;;;;2.00;1.20;;;24.00;47.50;;;;;;5102528;28;20036;-50
2021/04/12 01:09:32;;;;;;;4.68;1.75;;;24.00;47.50;;;;;;5105807;28;20024;-51
2021/04/12 01:12:23;;;;;;;4.30;1.55;;;24.00;47.60;;;;;;4995034;28;20040;-51
2021/04/12 01:15:02;;;;;;;3.28;1.42;;;24.00;47.50;;;;;;5089580;28;20547;-51
2021/04/12 01:17:56;;;;;;;2.78;1.52;;;24.00;47.30;;;;;;5093535;28;20035;-51
2021/04/12 01:20:40;;;;;;;3.13;1.35;;;24.00;47.30;;;;;;5073299;28;20039;-50
2021/04/12 01:23:37;;;;;;;2.90;1.45;;;24.00;47.40;;;;;;5073932;28;20025;-50
2021/04/12 01:26:30;;;;;;;3.42;1.73;;;23.90;47.30;;;;;;5093311;28;20454;-50
2021/04/12 01:29:34;;;;;;;3.50;1.38;;;23.90;47.30;;;;;;5092928;28;20047;-50
2021/04/12 01:32:38;;;;;;;4.10;2.10;;;23.90;47.50;;;;;;5016036;28;20048;-50
2021/04/12 01:35:22;;;;;;;2.45;1.30;;;23.90;47.30;;;;;;5054688;28;20032;-50
2021/04/12 01:37:54;;;;;;;6.22;1.42;;;23.90;47.40;;;;;;5089437;28;20042;-50
2021/04/12 01:40:35;;;;;;;2.60;1.65;;;23.90;47.40;;;;;;5093165;28;20178;-50
2021/04/12 01:43:18;;;;;;;2.63;1.40;;;23.90;47.50;;;;;;5092544;28;20028;-50
2021/04/12 01:45:56;;;;;;;2.60;1.40;;;23.80;47.30;;;;;;5092996;28;20024;-50
2021/04/12 01:48:40;;;;;;;3.67;1.83;;;23.80;47.30;;;;;;5092970;28;20032;-51
2021/04/12 01:51:40;;;;;;;2.92;1.33;;;23.90;47.40;;;;;;5057786;28;20119;-51
2021/04/12 01:54:31;;;;;;;5.18;1.90;;;23.80;47.30;;;;;;5092712;28;20024;-51
2021/04/12 01:57:34;;;;;;;3.50;1.80;;;23.80;47.30;;;;;;5092909;28;20104;-50
2021/04/12 02:00:37;;;;;;;1.45;1.13;;;23.80;47.20;;;;;;5092594;28;20458;-51
2021/04/12 02:03:25;;;;;;;2.80;0.88;;;23.80;47.20;;;;;;5072748;28;20036;-51
2021/04/12 02:06:09;;;;;;;2.25;1.23;;;23.70;47.20;;;;;;5092531;28;20032;-51
2021/04/12 02:09:09;;;;;;;2.60;0.90;;;23.70;47.20;;;;;;5092716;28;20097;-51
2021/04/12 02:11:35;;;;;;;3.25;1.15;;;23.70;47.30;;;;;;5090880;28;20390;-51
2021/04/12 02:14:10;;;;;;;2.55;1.08;;;23.70;47.40;;;;;;5092709;28;20111;-50
2021/04/12 02:16:45;;;;;;;2.35;1.00;;;23.70;47.40;;;;;;5092050;28;20032;-51
2021/04/12 02:19:35;;;;;;;4.63;1.60;;;23.70;47.30;;;;;;5092089;28;20032;-50
2021/04/12 02:22:10;;;;;;;2.50;1.03;;;23.70;47.30;;;;;;5091965;28;20032;-51
2021/04/12 02:25:10;;;;;;;2.33;1.30;;;23.70;47.30;;;;;;5074557;28;20028;-51
2021/04/12 02:27:45;;;;;;;4.13;0.98;;;23.70;47.40;;;;;;5092147;28;20116;-50
2021/04/12 02:30:40;;;;;;;2.15;1.20;;;23.70;47.30;;;;;;5092052;28;20137;-51
2021/04/12 02:33:19;;;;;;;1.98;1.20;;;23.70;47.30;;;;;;5061064;28;20036;-51
2021/04/12 02:36:14;;;;;;;3.10;1.27;;;23.70;47.40;;;;;;5074036;28;20024;-51
2021/04/12 02:39:18;;;;;;;1.65;0.85;;;23.70;47.40;;;;;;5092382;28;20131;-50
2021/04/12 02:42:09;;;;;;;1.60;0.98;;;23.70;47.40;;;;;;5072336;28;20116;-50
2021/04/12 02:45:05;;;;;;;1.42;1.05;;;23.70;47.50;;;;;;5076051;28;20027;-50
2021/04/12 02:48:06;;;;;;;1.30;0.98;;;23.70;47.30;;;;;;5094840;28;20469;-51
2021/04/12 02:50:54;;;;;;;1.40;0.95;;;23.70;47.40;;;;;;5096251;28;20055;-50
2021/04/12 02:53:43;;;;;;;2.20;1.00;;;23.70;47.40;;;;;;5096331;28;20024;-50
2021/04/12 02:56:29;;;;;;;2.92;1.27;;;23.70;47.50;;;;;;5039534;28;20195;-50
2021/04/12 02:59:14;;;;;;;2.75;1.10;;;23.60;47.50;;;;;;5075695;28;20486;-50
2021/04/12 03:02:06;;;;;;;2.50;1.63;;;23.60;47.40;;;;;;5075826;28;20024;-50
2021/04/12 03:05:03;;;;;;;2.05;1.23;;;23.60;47.40;;;;;;5041651;28;20032;-50
2021/04/12 03:07:47;;;;;;;2.22;1.23;;;23.60;47.50;;;;;;5095815;28;20438;-50
2021/04/12 03:10:35;;;;;;;2.10;1.40;;;23.60;47.50;;;;;;5095411;28;20115;-50
2021/04/12 03:13:19;;;;;;;2.38;1.30;;;23.60;47.50;;;;;;5095748;28;20089;-50
2021/04/12 03:16:03;;;;;;;2.15;1.42;;;23.50;47.50;;;;;;5095549;28;20119;-49
2021/04/12 03:18:29;;;;;;;2.75;1.60;;;23.60;47.60;;;;;;5095395;28;20035;-50
2021/04/12 03:21:17;;;;;;;2.47;1.60;;;23.60;47.60;;;;;;5095329;28;20023;-50
2021/04/12 03:24:04;;;;;;;5.30;1.63;;;23.60;47.60;;;;;;5095651;28;20038;-50
2021/04/12 03:27:07;;;;;;;4.65;1.70;;;23.60;47.60;;;;;;5095123;28;20050;-50
2021/04/12 03:30:00;;;;;;;3.88;1.88;;;23.50;47.60;;;;;;5094979;28;20134;-50
2021/04/12 03:32:45;;;;;;;3.88;1.60;;;23.50;47.60;;;;;;5095378;28;20028;-50
2021/04/12 03:35:18;;;;;;;3.60;1.80;;;23.60;47.60;;;;;;5095437;28;20074;-49
2021/04/12 03:38:06;;;;;;;2.63;1.50;;;23.50;47.60;;;;;;5095310;28;20028;-50
2021/04/12 03:40:56;;;;;;;2.17;1.42;;;23.50;47.60;;;;;;5094658;28;20043;-50
2021/04/12 03:43:58;;;;;;;3.65;1.65;;;23.50;47.60;;;;;;5095206;28;20039;-50
2021/04/12 03:46:37;;;;;;;3.58;1.92;;;23.50;47.60;;;;;;5094924;28;20028;-50
2021/04/12 03:49:14;;;;;;;3.17;1.75;;;23.50;47.60;;;;;;5095108;28;20028;-50
2021/04/12 03:51:59;;;;;;;3.78;1.63;;;23.50;47.60;;;;;;5094683;28;20137;-50
2021/04/12 03:54:41;;;;;;;2.35;1.70;;;23.50;47.70;;;;;;5095192;28;20035;-50
2021/04/12 03:57:19;;;;;;;3.10;1.65;;;23.50;47.60;;;;;;5074968;28;20029;-50
2021/04/12 04:00:20;;;;;;;3.05;1.60;;;23.50;47.60;;;;;;5092342;28;20059;-50
2021/04/12 04:03:23;;;;;;;2.67;1.65;;;23.50;47.60;;;;;;5094513;28;20024;-50
2021/04/12 04:06:14;;;;;;;4.03;1.73;;;23.50;47.60;;;;;;5094483;28;20031;-50
2021/04/12 04:09:04;;;;;;;3.83;1.63;;;23.50;47.60;;;;;;5094548;28;20032;-50
2021/04/12 04:11:36;;;;;;;3.53;1.60;;;23.50;47.50;;;;;;5094783;28;20032;-51
2021/04/12 04:14:30;;;;;;;2.55;1.60;;;23.50;47.60;;;;;;5094354;28;20112;-51
2021/04/12 04:17:41;;;;;;;2.45;1.38;;;23.40;47.60;;;;;;5094652;28;20028;-51
2021/04/12 04:20:22;;;;;;;3.40;1.52;;;23.40;47.60;;;;;;5057742;28;20379;-51
2021/04/12 04:23:00;;;;;;;2.55;1.50;;;23.40;47.60;;;;;;5074071;28;20494;-51
2021/04/12 04:25:35;;;;;;;2.92;1.42;;;23.40;47.60;;;;;;5075822;28;20028;-51
2021/04/12 04:28:25;;;;;;;2.53;1.63;;;23.40;47.70;;;;;;5094522;28;20036;-51
2021/04/12 04:31:28;;;;;;;3.05;1.70;;;23.40;47.70;;;;;;5073703;28;20177;-51
2021/04/12 04:34:02;;;;;;;4.20;2.00;;;23.40;47.70;;;;;;5080480;28;20039;-51
2021/04/12 04:36:31;;;;;;;2.63;1.63;;;23.40;47.60;;;;;;5094165;28;20077;-51
2021/04/12 04:39:08;;;;;;;4.25;1.85;;;23.40;47.60;;;;;;5093716;28;20012;-50
2021/04/12 04:42:01;;;;;;;2.25;1.80;;;23.40;47.60;;;;;;5076200;28;20115;-51
2021/04/12 04:44:37;;;;;;;2.35;1.52;;;23.40;47.60;;;;;;5075257;28;20068;-51
2021/04/12 04:47:12;;;;;;;3.10;1.60;;;23.40;47.60;;;;;;5094215;28;20378;-51
2021/04/12 04:50:18;;;;;;;3.88;1.65;;;23.40;47.60;;;;;;5093465;28;20355;-51
2021/04/12 04:53:14;;;;;;;3.35;1.77;;;23.40;47.50;;;;;;5082889;28;20036;-51
2021/04/12 04:56:05;;;;;;;4.30;1.75;;;23.40;47.50;;;;;;5075336;28;20020;-51
2021/04/12 04:58:34;;;;;;;4.05;1.80;;;23.40;47.40;;;;;;5093080;28;20024;-51
2021/04/12 05:01:16;;;;;;;6.63;2.00;;;23.40;47.50;;;;;;5093459;28;20031;-51
2021/04/12 05:04:20;;;;;;;3.45;1.80;;;23.40;47.50;;;;;;5073466;28;20061;-51
2021/04/12 05:07:11;;;;;;;2.05;1.80;;;23.30;47.40;;;;;;5074732;28;20050;-51
2021/04/12 05:10:06;;;;;;;5.65;1.60;;;23.40;47.40;;;;;;5092970;28;20060;-51
2021/04/12 05:13:06;;;;;;;2.63;1.58;;;23.30;47.40;;;;;;5093041;28;20043;-51
2021/04/12 05:15:43;;;;;;;1.90;1.60;;;23.30;47.30;;;;;;5093529;28;20107;-51
2021/04/12 05:18:30;;;;;;;2.40;1.40;;;23.30;47.30;;;;;;5093016;28;20265;-51
2021/04/12 05:21:05;;;;;;;2.20;1.63;;;23.30;47.40;;;;;;5093051;28;20031;-50
2021/04/12 05:23:41;;;;;;;3.47;1.80;;;23.30;47.40;;;;;;5093272;28;20059;-50
2021/04/12 05:26:18;;;;;;;2.38;1.70;;;23.30;47.30;;;;;;5093056;28;20028;-50
2021/04/12 05:29:06;;;;;;;3.00;1.27;;;23.30;47.40;;;;;;5093207;28;20169;-50
2021/04/12 05:31:50;;;;;;;3.67;1.90;;;23.30;47.40;;;;;;5092315;28;20099;-50
2021/04/12 05:34:39;;;;;;;1.95;1.38;;;23.30;47.40;;;;;;5093211;28;20078;-50
2021/04/12 05:37:30;;;;;;;4.22;1.73;;;23.30;47.90;;;;;;5072860;28;20099;-51
2021/04/12 05:40:38;;;;;;;4.03;1.35;;;23.30;47.40;;;;;;5066795;28;20395;-51
2021/04/12 05:43:09;;;;;;;3.58;1.70;;;23.30;47.40;;;;;;5113445;28;20034;-51
2021/04/12 05:45:38;;;;;;;3.30;1.40;;;23.30;47.40;;;;;;5100064;28;20024;-51
2021/04/12 05:48:04;;;;;;;2.33;1.63;;;23.30;47.40;;;;;;5092876;28;20031;-51
2021/04/12 05:51:00;;;;;;;2.80;1.73;;;23.30;47.50;;;;;;5092623;28;20466;-51
2021/04/12 05:53:38;;;;;;;3.35;1.90;;;23.30;47.50;;;;;;5092407;28;20032;-51
2021/04/12 05:56:49;;;;;;;5.30;1.83;;;23.30;47.50;;;;;;5092607;28;20036;-50
2021/04/12 05:59:18;;;;;;;;;;;23.30;47.50;;;;;;5093565;28;20391;-50
2021/04/12 06:01:55;;;;;;;3.42;1.42;;;23.30;47.60;;;;;;5092130;28;20264;-53
2021/04/12 06:04:28;;;;;;;2.10;1.25;;;23.30;47.30;;;;;;5092063;28;20066;-50
2021/04/12 06:07:03;;;;;;;3.22;1.70;;;23.30;47.30;;;;;;5087450;28;20544;-50
2021/04/12 06:09:54;;;;;;;2.55;1.40;;;23.30;47.40;;;;;;5072142;28;20115;-50
2021/04/12 06:12:57;;;;;;;3.22;1.60;;;23.30;47.40;;;;;;5072434;28;20563;-50
2021/04/12 06:15:52;;;;;;;2.55;1.55;;;23.30;47.50;;;;;;5087839;28;20381;-51
2021/04/12 06:18:53;;;;;;;6.13;3.85;;;23.30;47.40;;;;;;5071992;28;20036;-52
2021/04/12 06:21:40;;;;;;;27.98;23.00;;;23.30;47.40;;;;;;5083733;28;20043;-53
2021/04/12 06:24:37;;;;;;;19.88;17.77;;;23.30;47.30;;;;;;5093046;28;20031;-52
2021/04/12 06:27:33;;;;;;;14.45;12.85;;;23.30;47.30;;;;;;5092656;28;20035;-53
2021/04/12 06:30:18;;;;;;;15.18;13.57;;;23.30;47.20;;;;;;5091262;28;20131;-52
2021/04/12 06:32:56;;;;;;;16.58;13.70;;;23.30;47.20;;;;;;5088864;28;20454;-52
2021/04/12 06:35:31;;;;;;;14.40;12.48;;;23.30;47.20;;;;;;5066172;28;20019;-52
2021/04/12 06:38:34;;;;;;;14.73;10.93;;;23.30;47.20;;;;;;5091061;28;20112;-52
2021/04/12 06:41:18;;;;;;;14.02;9.35;;;23.20;47.20;;;;;;5076329;28;20033;-52
2021/04/12 06:44:06;;;;;;;11.30;8.93;;;23.30;47.20;;;;;;5094858;28;20490;-53
2021/04/12 06:46:46;;;;;;;10.07;7.63;;;23.20;47.20;;;;;;5092936;28;20054;-52
2021/04/12 06:49:37;;;;;;;9.90;6.30;;;23.30;47.10;;;;;;5092392;28;20373;-52
2021/04/12 06:52:05;;;;;;;8.43;5.88;;;23.30;47.10;;;;;;5094539;28;20161;-51
2021/04/12 06:54:53;;;;;;;9.63;6.00;;;23.30;47.20;;;;;;5095577;28;20032;-52
2021/04/12 06:57:25;;;;;;;7.65;5.10;;;23.30;47.20;;;;;;5075644;28;20024;-51
2021/04/12 07:00:06;;;;;;;8.30;5.97;;;23.30;47.10;;;;;;5095363;28;20024;-49
2021/04/12 07:02:50;;;;;;;9.23;5.88;;;23.30;47.20;;;;;;5092701;28;20082;-50
2021/04/12 07:05:48;;;;;;;9.10;5.15;;;23.30;47.30;;;;;;5104893;28;20020;-49
2021/04/12 07:08:36;;;;;;;6.00;4.80;;;23.30;47.30;;;;;;5094712;28;20355;-50
2021/04/12 07:11:40;;;;;;;8.38;4.50;;;23.30;47.20;;;;;;5092545;28;20119;-49
2021/04/12 07:14:30;;;;;;;7.70;5.55;;;23.30;47.20;;;;;;5095944;28;20059;-52
2021/04/12 07:16:56;;;;;;;;;;;23.40;47.20;;;;;;5081616;28;20039;-52
2021/04/12 07:19:47;;;;;;;11.32;10.02;;;23.40;47.50;;;;;;5095250;28;20011;-52
2021/04/12 07:22:50;;;;;;;15.60;10.38;;;23.50;47.20;;;;;;5095467;28;20024;-50
2021/04/12 07:25:47;;;;;;;9.52;8.48;;;23.50;47.20;;;;;;5095705;28;20020;-50
2021/04/12 07:28:34;;;;;;;11.50;7.30;;;23.50;47.20;;;;;;5095277;28;20043;-50
2021/04/12 07:31:05;;;;;;;16.88;14.23;;;23.50;47.10;;;;;;5094667;28;20132;-54
2021/04/12 07:33:38;;;;;;;24.60;21.92;;;23.50;47.20;;;;;;5095186;28;20024;-54
2021/04/12 07:36:10;;;;;;;23.52;18.42;;;23.50;47.20;;;;;;5071458;28;20046;-55
2021/04/12 07:38:54;;;;;;;37.63;33.35;;;23.50;47.20;;;;;;5092198;28;20028;-56
2021/04/12 07:41:45;;;;;;;75.97;68.22;;;23.60;47.20;;;;;;5076373;28;20089;-56
2021/04/12 07:44:36;;;;;;;35.88;32.00;;;23.60;47.20;;;;;;5093262;28;20020;-55
2021/04/12 07:47:17;;;;;;;26.00;23.20;;;23.60;47.10;;;;;;5094735;28;20085;-56
2021/04/12 07:50:24;;;;;;;18.52;15.82;;;23.60;47.00;;;;;;5094164;28;20035;-55
2021/04/12 07:53:24;;;;;;;11.90;10.27;;;23.60;47.10;;;;;;5093886;28;20031;-53
2021/04/12 07:56:37;;;;;;;9.73;8.18;;;23.70;47.00;;;;;;5090452;28;20145;-53
2021/04/12 07:59:12;;;;;;;7.72;4.18;;;23.60;47.00;;;;;;5091591;28;20558;-53
2021/04/12 08:01:57;;;;;;;4.28;2.60;;;23.70;46.90;;;;;;5094799;28;20107;-55
2021/04/12 08:04:58;;;;;;;2.83;1.95;;;23.80;47.00;;;;;;5093955;28;20458;-54
2021/04/12 08:07:46;;;;;;;1.63;1.17;;;23.80;47.00;;;;;;5058350;28;20054;-53
2021/04/12 08:10:40;;;;;;;2.45;1.02;;;23.80;47.00;;;;;;5093084;28;20062;-53
2021/04/12 08:13:34;;;;;;;3.97;1.00;;;23.80;47.10;;;;;;5090532;28;20221;-53
2021/04/12 08:16:32;;;;;;;1.58;1.17;;;23.90;47.10;;;;;;5094767;28;20035;-53
2021/04/12 08:19:16;;;;;;;2.42;1.35;;;23.90;47.20;;;;;;5069873;28;20055;-53
2021/04/12 08:22:07;;;;;;;3.15;1.25;;;23.90;47.20;;;;;;5094445;28;20030;-53
2021/04/12 08:25:02;;;;;;;5.70;1.40;;;24.00;47.30;;;;;;5085872;28;20115;-55
2021/04/12 08:27:47;;;;;;;2.25;1.48;;;24.00;47.40;;;;;;5094842;28;20111;-53
2021/04/12 08:30:47;;;;;;;3.00;1.17;;;24.00;47.50;;;;;;5093988;28;20062;-53
2021/04/12 08:33:55;;;;;;;3.57;2.13;;;24.10;47.50;;;;;;5094017;28;20032;-50
2021/04/12 08:36:59;;;;;;;3.13;1.67;;;24.10;47.80;;;;;;5093440;28;20028;-50
2021/04/12 08:39:43;;;;;;;5.80;1.50;;;24.10;48.10;;;;;;5092492;28;20156;-50
2021/04/12 08:42:36;;;;;;;5.82;1.90;;;24.20;48.20;;;;;;5076012;28;20103;-54
2021/04/12 08:45:13;;;;;;;5.05;2.55;;;24.20;48.30;;;;;;5092236;28;20035;-54
2021/04/12 08:48:06;;;;;;;4.65;2.08;;;24.20;48.20;;;;;;5092972;28;20032;-50
2021/04/12 08:51:04;;;;;;;6.18;2.60;;;24.30;48.90;;;;;;5091924;28;20028;-62
2021/04/12 08:53:59;;;;;;;7.03;2.88;;;24.30;49.20;;;;;;5087497;28;20039;-58
2021/04/12 08:57:02;;;;;;;6.15;3.03;;;24.30;50.20;;;;;;5090916;28;20028;-56
2021/04/12 08:59:43;;;;;;;7.63;3.25;;;24.30;51.20;;;;;;5091212;28;20114;-58
2021/04/12 09:02:38;;;;;;;10.52;3.47;;;24.30;51.90;;;;;;5090996;28;20115;-54
2021/04/12 09:05:32;;;;;;;10.93;3.55;;;24.30;51.80;;;;;;5090586;28;20023;-55
2021/04/12 09:08:17;;;;;;;12.32;3.85;;;24.30;52.10;;;;;;5073826;28;20067;-54
2021/04/12 09:11:11;;;;;;;14.05;3.00;;;24.40;53.10;;;;;;5092838;28;20170;-55
2021/04/12 09:14:25;;;;;;;11.93;4.07;;;24.40;53.60;;;;;;5090433;28;20024;-57
2021/04/12 09:17:12;;;;;;;11.70;3.30;;;24.40;53.00;;;;;;5070861;28;20036;-54
2021/04/12 09:19:53;;;;;;;13.73;3.28;;;24.50;53.40;;;;;;5091671;28;20028;-54
2021/04/12 09:22:57;;;;;;;17.48;4.32;;;24.50;53.30;;;;;;5087982;28;20509;-54
2021/04/12 09:26:16;;;;;;;14.20;4.97;;;24.50;53.50;;;;;;5087881;28;20192;-58
2021/04/12 09:29:13;;;;;;;46.00;29.73;;;24.50;53.40;;;;;;5011012;28;20046;-57
2021/04/12 09:31:47;;;;;;;53.42;42.95;;;24.50;53.20;;;;;;5010453;28;20096;-58
2021/04/12 09:34:50;;;;;;;47.00;29.15;;;24.50;53.90;;;;;;5011034;28;20060;-58
2021/04/12 09:37:35;;;;;;;37.20;22.63;;;24.50;53.30;;;;;;5010796;28;20074;-58
2021/04/12 09:40:22;;;;;;;25.75;19.40;;;24.50;53.10;;;;;;5010920;28;20029;-57
2021/04/12 09:43:26;;;;;;;25.25;14.32;;;24.50;53.20;;;;;;5010021;28;20091;-57
2021/04/12 09:46:17;;;;;;;27.08;20.15;;;24.50;52.90;;;;;;5009794;28;20037;-58
2021/04/12 09:48:46;;;;;;;30.50;21.92;;;24.60;53.00;;;;;;5007654;28;20044;-61
2021/04/12 09:51:30;;;;;;;25.73;17.02;;;24.60;52.90;;;;;;5010337;28;20034;-61
2021/04/12 09:54:14;;;;;;;23.95;13.30;;;24.60;53.00;;;;;;5009250;28;20034;-60
2021/04/12 09:56:41;;;;;;;22.52;10.55;;;24.70;53.00;;;;;;5010039;28;20026;-62
2021/04/12 09:59:38;;;;;;;18.50;10.13;;;24.70;53.00;;;;;;5039259;28;20039;-60
2021/04/12 10:02:33;;;;;;;25.85;14.98;;;24.70;53.10;;;;;;5087968;28;20032;-62
2021/04/12 10:05:37;;;;;;;20.77;11.38;;;24.70;53.00;;;;;;5073599;28;20115;-61
2021/04/12 10:08:31;;;;;;;19.75;11.38;;;24.80;52.90;;;;;;5088741;28;20024;-62
2021/04/12 10:11:10;;;;;;;17.65;13.20;;;24.90;53.10;;;;;;5090171;28;20035;-62
2021/04/12 10:13:50;;;;;;;45.33;33.33;;;24.90;52.90;;;;;;5091748;28;20119;-63
2021/04/12 10:16:24;;;;;;;30.17;22.05;;;24.90;52.70;;;;;;5089811;28;20073;-62
2021/04/12 10:19:13;;;;;;;28.58;19.55;;;25.00;52.80;;;;;;5090175;28;20032;-62
2021/04/12 10:22:18;;;;;;;31.08;17.40;;;25.00;52.70;;;;;;5090780;28;20103;-62
2021/04/12 10:25:04;;;;;;;30.10;16.08;;;25.10;52.70;;;;;;5037656;28;20044;-57
2021/04/12 10:27:45;;;;;;;27.02;14.93;;;25.10;52.70;;;;;;5090641;28;20386;-58
2021/04/12 10:30:16;;;;;;;24.13;12.63;;;25.20;52.70;;;;;;5090421;28;20051;-62
2021/04/12 10:32:49;;;;;;;25.23;12.32;;;25.20;52.40;;;;;;5090034;28;20052;-59
2021/04/12 10:35:37;;;;;;;22.80;11.23;;;25.30;52.40;;;;;;5092839;28;20030;-59
2021/04/12 10:38:28;;;;;;;24.50;10.90;;;25.30;52.20;;;;;;5084939;28;20024;-58
2021/04/12 10:41:15;;;;;;;19.27;10.45;;;25.40;52.10;;;;;;5074983;28;20031;-59
2021/04/12 10:43:45;;;;;;;17.25;9.55;;;25.50;52.00;;;;;;5092914;28;20107;-59
2021/04/12 10:46:29;;;;;;;19.52;9.07;;;25.50;51.80;;;;;;5092672;28;20035;-60
2021/04/12 10:49:21;;;;;;;19.73;8.52;;;25.60;51.70;;;;;;5092739;28;20036;-59
2021/04/12 10:52:14;;;;;;;14.30;7.32;;;25.60;51.70;;;;;;5092505;28;20039;-59
2021/04/12 10:54:57;;;;;;;37.95;22.80;;;25.70;51.50;;;;;;5074666;28;20047;-58
2021/04/12 10:57:45;;;;;;;51.47;42.67;;;25.70;51.40;;;;;;5092674;28;20028;-60
2021/04/12 11:00:26;;;;;;;42.55;34.88;;;25.80;51.30;;;;;;5092437;28;20047;-60
2021/04/12 11:03:02;;;;;;;42.08;29.55;;;25.90;51.20;;;;;;5092584;28;20119;-59
2021/04/12 11:05:30;;;;;;;34.30;25.75;;;25.90;51.10;;;;;;5092301;28;20038;-58
2021/04/12 11:08:18;;;;;;;32.45;23.60;;;26.00;50.90;;;;;;5093257;28;20020;-60
2021/04/12 11:11:10;;;;;;;34.40;22.50;;;26.10;50.80;;;;;;5088625;28;20025;-59
2021/04/12 11:13:48;;;;;;;34.08;21.70;;;26.20;50.70;;;;;;5075866;28;20030;-59
2021/04/12 11:16:39;;;;;;;27.38;20.42;;;26.30;50.60;;;;;;5075631;28;20025;-59
2021/04/12 11:19:36;;;;;;;28.55;20.15;;;26.40;51.10;;;;;;5075401;28;20033;-60
2021/04/12 11:22:10;;;;;;;22.13;14.75;;;26.40;50.30;;;;;;5051950;28;20048;-59
2021/04/12 11:25:23;;;;;;;21.38;13.23;;;26.60;50.10;;;;;;5074963;28;20093;-58
2021/04/12 11:28:13;;;;;;;39.25;33.25;;;26.60;50.20;;;;;;5075181;28;20024;-58
2021/04/12 11:30:48;;;;;;;;;;;26.70;49.80;;;;;;5075975;28;20429;-59
2021/04/12 11:33:32;;;;;;;30.30;20.23;;;26.80;50.40;;;;;;5075217;28;20365;-57
2021/04/12 11:36:28;;;;;;;31.20;18.50;;;27.00;49.30;;;;;;5075475;28;20397;-59
2021/04/12 11:39:08;;;;;;;27.10;16.85;;;27.20;49.30;;;;;;5075402;28;20470;-58
2021/04/12 11:41:45;;;;;;;24.67;15.57;;;27.30;48.90;;;;;;5075478;28;20071;-59
2021/04/12 11:44:17;;;;;;;20.25;13.15;;;27.40;48.80;;;;;;5075271;28;20028;-59
2021/04/12 11:47:12;;;;;;;18.70;10.95;;;27.40;48.50;;;;;;5075304;28;20043;-60
2021/04/12 11:50:06;;;;;;;31.50;21.65;;;27.50;48.70;;;;;;5075502;28;20389;-58
2021/04/12 11:52:54;;;;;;;29.92;22.02;;;27.60;48.20;;;;;;5074965;28;20085;-58
2021/04/12 11:55:33;;;;;;;25.98;16.75;;;27.70;48.30;;;;;;5075146;28;20036;-59
2021/04/12 11:58:43;;;;;;;21.83;15.18;;;27.80;47.90;;;;;;5075103;28;20471;-58
2021/04/12 12:01:27;;;;;;;17.05;12.98;;;27.80;48.00;;;;;;4993538;28;20045;-58
2021/04/12 12:04:02;;;;;;;24.00;10.65;;;27.80;47.70;;;;;;4993325;28;20104;-59
2021/04/12 12:06:34;;;;;;;22.15;10.43;;;27.90;48.00;;;;;;4993327;28;20042;-58
2021/04/12 12:09:02;;;;;;;19.83;9.80;;;27.90;47.30;;;;;;4993538;28;20049;-57
2021/04/12 12:11:48;;;;;;;22.33;10.18;;;27.90;47.40;;;;;;4993220;28;20116;-60
2021/04/12 12:14:21;;;;;;;37.08;10.13;;;28.00;47.40;;;;;;4993180;28;20039;-60
2021/04/12 12:16:48;;;;;;;22.77;9.95;;;28.00;47.00;;;;;;4993554;28;20037;-60
2021/04/12 12:19:39;;;;;;;22.98;9.80;;;28.10;47.20;;;;;;4975775;28;20145;-59
2021/04/12 12:22:20;;;;;;;39.85;11.13;;;28.00;47.20;;;;;;4993454;28;20044;-60
2021/04/12 12:25:04;;;;;;;26.23;10.48;;;27.90;47.00;;;;;;4993346;28;20050;-60
2021/04/12 12:27:37;;;;;;;27.23;9.90;;;27.90;47.10;;;;;;4993336;28;20050;-59
2021/04/12 12:30:29;;;;;;;31.88;10.65;;;27.90;47.10;;;;;;4992868;28;20046;-58
2021/04/12 12:33:11;;;;;;;24.73;10.20;;;27.80;47.20;;;;;;4993083;28;20451;-59
2021/04/12 12:36:06;;;;;;;20.95;9.77;;;27.80;47.20;;;;;;4992946;28;20385;-61
2021/04/12 12:38:38;;;;;;;26.80;10.63;;;27.70;47.40;;;;;;5063373;28;20094;-60
2021/04/12 12:41:16;;;;;;;14.43;8.90;;;27.70;47.50;;;;;;5074268;28;20031;-59
2021/04/12 12:43:42;;;;;;;19.95;8.85;;;27.60;47.50;;;;;;5073957;28;20131;-60
2021/04/12 12:46:19;;;;;;;21.83;9.60;;;27.60;47.70;;;;;;5074024;28;20434;-60
2021/04/12 12:49:00;;;;;;;20.23;8.77;;;27.50;47.70;;;;;;5074108;28;20028;-60
2021/04/12 12:51:32;;;;;;;15.93;8.23;;;27.50;47.70;;;;;;5074083;28;20036;-60
2021/04/12 12:54:05;;;;;;;18.80;8.38;;;27.50;47.80;;;;;;5074059;28;20485;-59
2021/04/12 12:56:35;;;;;;;17.25;8.20;;;27.40;47.90;;;;;;5073890;28;20064;-58
2021/04/12 12:59:25;;;;;;;18.08;8.43;;;27.40;48.00;;;;;;5073953;28;20070;-59
2021/04/12 13:01:53;;;;;;;13.18;7.93;;;27.30;48.00;;;;;;5055942;28;20459;-59
2021/04/12 13:04:28;;;;;;;14.40;7.50;;;27.30;48.10;;;;;;5073696;28;20028;-59
2021/04/12 13:07:08;;;;;;;14.75;7.40;;;27.20;48.10;;;;;;5073826;28;20021;-59
2021/04/12 13:09:37;;;;;;;12.85;7.15;;;27.20;48.30;;;;;;5073648;28;20027;-59
2021/04/12 13:12:14;;;;;;;15.88;7.78;;;27.20;48.30;;;;;;5073926;28;20074;-59
2021/04/12 13:14:48;;;;;;;14.07;7.38;;;27.10;48.50;;;;;;5055539;28;20040;-60
2021/04/12 13:17:39;;;;;;;15.02;7.40;;;27.00;48.50;;;;;;5055717;28;20038;-59
2021/04/12 13:20:20;;;;;;;12.52;7.25;;;27.10;48.60;;;;;;5073658;28;20375;-59
2021/04/12 13:22:53;;;;;;;15.18;6.43;;;27.00;48.70;;;;;;5055872;28;20393;-59
2021/04/12 13:25:35;;;;;;;14.23;5.40;;;27.00;48.50;;;;;;5056260;28;20425;-59
2021/04/12 13:28:25;;;;;;;14.32;5.60;;;26.90;48.60;;;;;;5072976;28;20036;-59
2021/04/12 13:31:05;;;;;;;11.98;4.78;;;26.90;48.50;;;;;;5071917;28;20052;-58
2021/04/12 13:33:38;;;;;;;16.15;5.10;;;26.90;48.40;;;;;;5055074;28;20478;-58
2021/04/12 13:36:16;;;;;;;11.10;4.75;;;26.90;48.40;;;;;;5073504;28;20521;-58
2021/04/12 13:38:44;;;;;;;11.23;3.92;;;26.80;48.50;;;;;;5073018;28;20355;-58
2021/04/12 13:41:16;;;;;;;12.23;4.20;;;26.80;48.40;;;;;;5073158;28;20028;-58
2021/04/12 13:43:46;;;;;;;10.40;4.10;;;26.80;48.40;;;;;;5072775;28;20047;-58
2021/04/12 13:46:17;;;;;;;9.48;3.65;;;26.80;48.30;;;;;;5073054;28;20413;-58
2021/04/12 13:49:09;;;;;;;10.60;3.60;;;26.70;48.20;;;;;;5072894;28;20092;-58
2021/04/12 13:51:41;;;;;;;77.57;62.22;;;26.70;48.30;;;;;;5062514;28;20048;-58
2021/04/12 13:54:19;;;;;;;55.38;48.88;;;26.70;48.10;;;;;;5054712;28;20029;-58
2021/04/12 13:56:51;;;;;;;43.00;35.83;;;26.60;48.00;;;;;;5055023;28;20127;-58
2021/04/12 13:59:32;;;;;;;38.88;28.02;;;26.60;48.70;;;;;;5072532;28;20409;-57
2021/04/12 14:02:20;;;;;;;45.30;33.40;;;26.50;48.20;;;;;;5072751;28;20105;-60
2021/04/12 14:04:54;;;;;;;23.52;18.30;;;26.50;48.40;;;;;;5053889;28;20490;-59
2021/04/12 14:07:43;;;;;;;21.60;16.42;;;26.40;48.30;;;;;;5072668;28;20082;-58
2021/04/12 14:10:30;;;;;;;17.10;9.82;;;26.40;48.50;;;;;;5072582;28;20033;-58
2021/04/12 14:13:09;;;;;;;18.10;8.52;;;26.30;48.40;;;;;;5072335;28;20098;-58
2021/04/12 14:16:04;;;;;;;14.75;6.05;;;26.30;48.50;;;;;;5071205;28;20055;-58